KALM/ALM METAR and TAF weather

Enter ICAO airport designator
Station Type Date Time Source
KALM METAR 2020/07/11 20:55 UTC NOAA

KALM 112055Z AUTO 09005KT 10SM CLR 40/02 A3010 RMK AO2


Station Type Date Time Source
KALM Decoded METAR 2020/07/11 20:55 UTC NOAA

Alamogordo-White, NM, United States (KALM) 32-50N 105-59W
Jul 11, 2020 - 04:55 PM EDT / 2020.07.11 2055 UTC
Wind: from the E (090 degrees) at 6 MPH (5 KT):0
Visibility: 10 mile(s):0
Sky conditions: clear
Temperature: 104 F (40 C)
Dew Point: 35 F (2 C)
Relative Humidity: 9%
Pressure (altimeter): 30.1 in. Hg (1019 hPa)
ob: KALM 112055Z AUTO 09005KT 10SM CLR 40/02 A3010 RMK AO2
cycle: 21

Station Type Date Time Source
KALM TAF UTC NOAA

Error!

Example: see airport list